Time;durP1;ratioP1;P1;durP2;ratioP2;P2;SDS_P1;SDS_P2;PMS_P1;PMS_P2;Temp;Humidity;BMP_temperature;BMP_pressure;BME280_temperature;BME280_humidity;BME280_pressure;Samples;Min_cycle;Max_cycle;Signal;HPM_P1;HPM_P2
2023/01/25 21:47:35;;;;;;;;;;;;;;;6.43;52.32;99770.25;4986203;28;20566;-90
2023/01/25 22:18:53;;;;;;;;;;;;;;;6.40;52.95;99721.91;5024215;28;19925;-89
2023/01/25 22:21:23;;;;;;;;;;;;;;;6.42;52.65;99724.44;5016555;28;19922;-89
2023/01/25 22:23:49;;;;;;;;;;;;;;;6.42;52.67;99716.66;4996970;28;19929;-90
2023/01/25 22:26:17;;;;;;;;;;;;;;;6.42;52.61;99709.75;5014392;28;19913;-89
2023/01/25 22:29:12;;;;;;;;;;;;;;;6.41;52.89;99697.69;5033426;28;19918;-91
2023/01/25 22:31:43;;;;;;;;;;;;;;;6.40;52.49;99688.22;5031135;28;19917;-90
2023/01/25 22:34:10;;;;;;;;;;;;;;;6.39;52.36;99683.94;5031315;28;19917;-90
2023/01/25 22:36:37;;;;;;;;;;;;;;;6.41;52.71;99682.13;5014912;28;19917;-89
2023/01/25 22:39:02;;;;;;;;;;;;;;;6.40;52.86;99683.03;4995427;28;19922;-89
2023/01/25 22:41:30;;;;;;;;;;;;;;;6.38;52.90;99681.41;5014236;28;19922;-87
2023/01/25 22:43:57;;;;;;;;;;;;;;;6.40;52.09;99669.22;4999826;28;19952;-89
2023/01/25 22:46:24;;;;;;;;;;;;;;;6.39;52.73;99657.16;5015787;28;20004;-89
2023/01/25 22:48:50;;;;;;;;;;;;;;;6.39;52.61;99657.16;4993644;28;19929;-91
2023/01/25 22:51:19;;;;;;;;;;;;;;;6.40;52.63;99658.84;5014467;28;19918;-88
2023/01/25 22:53:45;;;;;;;;;;;;;;;6.39;52.38;99654.56;5025852;28;19928;-88
2023/01/25 22:56:24;;;;;;;;;;;;;;;6.38;52.64;99651.13;4989559;28;19918;-88
2023/01/25 22:58:50;;;;;;;;;;;;;;;6.37;52.79;99659.81;5020810;28;20416;-83
2023/01/25 23:01:17;;;;;;;;;;;;;;;6.37;52.64;99648.59;5021344;28;19976;-89
2023/01/25 23:03:44;;;;;;;;;;;;;;;6.36;53.49;99639.13;4999573;28;19970;-90
2023/01/25 23:06:11;;;;;;;;;;;;;;;6.36;53.25;99639.13;5000365;28;20016;-89
2023/01/25 23:08:36;;;;;;;;;;;;;;;6.35;52.79;99638.31;4981960;28;20222;-89
2023/01/25 23:11:03;;;;;;;;;;;;;;;6.33;53.24;99630.59;4981826;28;19972;-89
2023/01/25 23:13:28;;;;;;;;;;;;;;;6.33;52.59;99632.34;4981870;28;19943;-88
2023/01/25 23:15:54;;;;;;;;;;;;;;;6.33;53.13;99625.41;4981483;28;19991;-88
2023/01/25 23:21:04;;;;;;;;;;;;;;;6.33;52.63;99628.00;5000657;28;19924;-89
2023/01/25 23:23:29;;;;;;;;;;;;;;;6.34;53.08;99634.00;4982092;28;20304;-89
2023/01/25 23:25:56;;;;;;;;;;;;;;;6.33;52.45;99634.94;4981484;28;20403;-89
2023/01/25 23:28:22;;;;;;;;;;;;;;;6.31;52.45;99629.81;4998134;28;19924;-90
2023/01/25 23:30:47;;;;;;;;;;;;;;;6.31;52.05;99629.81;4980812;28;19917;-86
2023/01/25 23:33:17;;;;;;;;;;;;;;;6.30;52.61;99624.72;4998323;28;20336;-92
2023/01/25 23:35:42;;;;;;;;;;;;;;;6.32;52.24;99622.88;4983336;28;19921;-93
2023/01/25 23:38:13;;;;;;;;;;;;;;;6.32;52.30;99626.31;4983668;28;19984;-92
2023/01/25 23:40:39;;;;;;;;;;;;;;;6.30;52.76;99622.94;4999703;28;19924;-90
2023/01/25 23:43:04;;;;;;;;;;;;;;;6.30;52.40;99622.94;4981211;28;19921;-90
2023/01/25 23:45:30;;;;;;;;;;;;;;;6.31;52.22;99614.25;4997074;28;19921;-89
2023/01/25 23:47:55;;;;;;;;;;;;;;;6.32;52.67;99613.34;4980912;28;19924;-88
2023/01/25 23:50:20;;;;;;;;;;;;;;;6.30;52.69;99612.56;4997017;28;20393;-88
2023/01/25 23:52:46;;;;;;;;;;;;;;;6.31;52.56;99614.25;4980978;28;20350;-89
2023/01/25 23:55:11;;;;;;;;;;;;;;;6.29;52.90;99608.31;4997193;28;20328;-88
2023/01/25 23:57:37;;;;;;;;;;;;;;;6.29;52.34;99620.41;4981316;28;19918;-91
